createdAt,value
2022-12-12T00:02:06.701Z,-4.21
2022-12-12T00:04:33.290Z,-4.18
2022-12-12T00:06:59.951Z,-4.17
2022-12-12T00:09:26.609Z,-4.14
2022-12-12T00:11:53.214Z,-4.12
2022-12-12T00:14:19.968Z,-4.09
2022-12-12T00:16:46.622Z,-4.06
2022-12-12T00:19:13.314Z,-4.06
2022-12-12T00:21:40.075Z,-4.06
2022-12-12T00:24:07.216Z,-4.06
2022-12-12T00:26:34.914Z,-4.07
2022-12-12T00:29:03.931Z,-4.06
2022-12-12T00:31:33.442Z,-4.08
2022-12-12T00:34:02.928Z,-4.09
2022-12-12T00:36:31.069Z,-4.09
2022-12-12T00:38:58.986Z,-4.07
2022-12-12T00:41:25.995Z,-4.06
2022-12-12T00:43:52.896Z,-4.06
2022-12-12T00:46:22.446Z,-4.07
2022-12-12T00:48:49.411Z,-4.09
2022-12-12T00:51:21.730Z,-4.07
2022-12-12T00:53:48.944Z,-4.06
2022-12-12T00:56:17.474Z,-4.06
2022-12-12T00:58:44.328Z,-4.06
2022-12-12T01:01:14.243Z,-4.03
2022-12-12T01:03:42.219Z,-4.03
2022-12-12T01:06:09.654Z,-4.05
2022-12-12T01:08:37.282Z,-4.04
2022-12-12T01:11:04.349Z,-4.06
2022-12-12T01:13:31.053Z,-4.03
2022-12-12T01:15:58.081Z,-4.03
2022-12-12T01:18:25.591Z,-4.03
2022-12-12T01:20:53.070Z,-4.05
2022-12-12T01:23:19.718Z,-4.06
2022-12-12T01:25:46.406Z,-4.06
2022-12-12T01:28:13.145Z,-4.06
2022-12-12T01:30:39.946Z,-4.03
2022-12-12T01:33:06.649Z,-4.01
2022-12-12T01:35:34.122Z,-4.00
2022-12-12T01:38:00.758Z,-3.98
2022-12-12T01:40:30.018Z,-3.96
2022-12-12T01:42:56.955Z,-3.95
2022-12-12T01:45:57.431Z,-3.92
2022-12-12T01:48:53.418Z,-3.91
2022-12-12T01:51:23.564Z,-3.89
2022-12-12T01:53:54.430Z,-3.87
2022-12-12T01:56:21.700Z,-3.83
2022-12-12T01:58:51.394Z,-3.82
2022-12-12T02:01:19.267Z,-3.80
2022-12-12T02:03:48.527Z,-3.77
2022-12-12T02:06:19.942Z,-3.75
2022-12-12T02:08:47.798Z,-3.73
2022-12-12T02:11:14.439Z,-3.74
2022-12-12T02:13:41.522Z,-3.74
2022-12-12T02:16:31.407Z,-3.73
2022-12-12T02:19:22.672Z,-3.74
2022-12-12T02:22:03.287Z,-3.72
2022-12-12T02:24:48.826Z,-3.71
2022-12-12T02:27:27.396Z,-3.71
2022-12-12T02:30:06.547Z,-3.69
2022-12-12T02:32:36.138Z,-3.68
2022-12-12T02:35:19.061Z,-3.67
2022-12-12T02:37:52.918Z,-3.67
2022-12-12T02:40:36.889Z,-3.65
2022-12-12T02:43:06.429Z,-3.64
2022-12-12T02:45:54.494Z,-3.62
2022-12-12T02:48:32.208Z,-3.61
2022-12-12T02:51:02.323Z,-3.61
2022-12-12T02:53:28.966Z,-3.58
2022-12-12T02:56:06.924Z,-3.59
2022-12-12T02:58:36.216Z,-3.56
2022-12-12T03:01:26.535Z,-3.56
2022-12-12T03:04:24.102Z,-3.53
2022-12-12T03:07:21.550Z,-3.52
2022-12-12T03:10:09.686Z,-3.50
2022-12-12T03:12:49.108Z,-3.50
2022-12-12T03:15:26.254Z,-3.50
2022-12-12T03:18:16.663Z,-3.50
2022-12-12T03:20:53.756Z,-3.48
2022-12-12T03:23:28.538Z,-3.46
2022-12-12T03:26:26.902Z,-3.46
2022-12-12T03:29:05.776Z,-3.45
2022-12-12T03:31:37.573Z,-3.45
2022-12-12T03:34:27.946Z,-3.45
2022-12-12T03:37:01.262Z,-3.43
2022-12-12T03:39:35.489Z,-3.43
2022-12-12T03:42:15.647Z,-3.42
2022-12-12T03:44:51.391Z,-3.41
2022-12-12T03:47:23.550Z,-3.41
2022-12-12T03:49:52.487Z,-3.39
2022-12-12T03:52:38.768Z,-3.39
2022-12-12T03:55:31.898Z,-3.38
2022-12-12T03:58:05.416Z,-3.41
2022-12-12T04:00:38.409Z,-3.43
2022-12-12T04:03:32.958Z,-3.46
2022-12-12T04:06:37.690Z,-3.45
2022-12-12T04:09:33.027Z,-3.48
2022-12-12T04:12:35.356Z,-3.51
2022-12-12T04:15:20.090Z,-3.51
2022-12-12T04:18:22.345Z,-3.53
2022-12-12T04:21:07.300Z,-3.50
2022-12-12T04:23:57.020Z,-3.49
2022-12-12T04:26:40.676Z,-3.50
2022-12-12T04:29:17.393Z,-3.50
2022-12-12T04:31:57.797Z,-3.49
2022-12-12T04:34:50.274Z,-3.47
2022-12-12T04:37:24.593Z,-3.46
2022-12-12T04:39:56.721Z,-3.46
2022-12-12T04:42:28.752Z,-3.46
2022-12-12T04:45:03.470Z,-3.46
2022-12-12T04:47:32.333Z,-3.46
2022-12-12T04:50:03.371Z,-3.46
2022-12-12T04:52:32.989Z,-3.45
2022-12-12T04:55:21.137Z,-3.46
2022-12-12T04:57:51.107Z,-3.46
2022-12-12T05:00:18.307Z,-3.46
2022-12-12T05:03:02.245Z,-3.48
2022-12-12T05:05:37.134Z,-3.49
2022-12-12T05:08:23.030Z,-3.48
2022-12-12T05:10:56.139Z,-3.47
2022-12-12T05:13:29.291Z,-3.45
2022-12-12T05:15:58.145Z,-3.45
2022-12-12T05:18:24.746Z,-3.45
2022-12-12T05:20:51.858Z,-3.45
2022-12-12T05:23:18.791Z,-3.42
2022-12-12T05:25:45.475Z,-3.40
2022-12-12T05:28:12.187Z,-3.39
2022-12-12T05:30:38.843Z,-3.35
2022-12-12T05:33:05.564Z,-3.31
2022-12-12T05:35:33.959Z,-3.28
2022-12-12T05:38:02.067Z,-3.25
2022-12-12T05:40:28.741Z,-3.24
2022-12-12T05:42:55.418Z,-3.22
2022-12-12T05:45:22.159Z,-3.20
2022-12-12T05:47:48.878Z,-3.19
2022-12-12T05:50:15.538Z,-3.18
2022-12-12T05:52:42.186Z,-3.17
2022-12-12T05:55:09.017Z,-3.16
2022-12-12T05:57:35.841Z,-3.17
2022-12-12T06:00:02.730Z,-3.18
2022-12-12T06:02:29.385Z,-3.19
2022-12-12T06:04:56.023Z,-3.19
2022-12-12T06:07:22.669Z,-3.20
2022-12-12T06:09:49.277Z,-3.21
2022-12-12T06:12:15.916Z,-3.18
2022-12-12T06:14:42.574Z,-3.18
2022-12-12T06:17:09.245Z,-3.17
2022-12-12T06:19:35.920Z,-3.20
2022-12-12T06:22:02.526Z,-3.20
2022-12-12T06:24:29.197Z,-3.20
2022-12-12T06:26:56.033Z,-3.18
2022-12-12T06:29:22.717Z,-3.17
2022-12-12T06:31:49.363Z,-3.18
2022-12-12T06:34:16.068Z,-3.17
2022-12-12T06:36:43.117Z,-3.17
2022-12-12T06:39:10.183Z,-3.17
2022-12-12T06:41:37.182Z,-3.15
2022-12-12T06:44:04.439Z,-3.14
2022-12-12T06:46:31.311Z,-3.13
2022-12-12T06:48:58.659Z,-3.12
2022-12-12T06:51:29.083Z,-3.12
2022-12-12T06:53:56.661Z,-3.11
2022-12-12T06:56:25.411Z,-3.12
2022-12-12T06:58:53.179Z,-3.12
2022-12-12T07:01:21.768Z,-3.14
2022-12-12T07:03:49.747Z,-3.13
2022-12-12T07:06:17.861Z,-3.12
2022-12-12T07:08:44.745Z,-3.12
2022-12-12T07:11:17.016Z,-3.10
2022-12-12T07:13:43.824Z,-3.07
2022-12-12T07:16:11.520Z,-3.07
2022-12-12T07:18:38.618Z,-3.06
2022-12-12T07:21:11.135Z,-3.07
2022-12-12T07:23:38.282Z,-3.08
2022-12-12T07:26:12.501Z,-3.07
2022-12-12T07:28:39.182Z,-3.08
2022-12-12T07:31:11.066Z,-3.08
2022-12-12T07:33:43.628Z,-3.08
2022-12-12T07:36:15.549Z,-3.09
2022-12-12T07:38:42.696Z,-3.11
2022-12-12T07:41:15.174Z,-3.10
2022-12-12T07:43:44.898Z,-3.11
2022-12-12T07:46:16.156Z,-3.10
2022-12-12T07:48:43.206Z,-3.08
2022-12-12T07:51:10.054Z,-3.07
2022-12-12T07:53:36.868Z,-3.06
2022-12-12T07:56:07.839Z,-3.07
2022-12-12T07:58:35.619Z,-3.06
2022-12-12T08:01:14.178Z,-3.07
2022-12-12T08:03:42.260Z,-3.04
2022-12-12T08:06:08.974Z,-3.05
2022-12-12T08:08:35.705Z,-3.01
2022-12-12T08:11:10.424Z,-3.00
2022-12-12T08:13:39.288Z,-2.98
2022-12-12T08:16:08.262Z,-2.98
2022-12-12T08:18:35.085Z,-2.95
2022-12-12T08:21:01.857Z,-2.95
2022-12-12T08:23:28.558Z,-2.96
2022-12-12T08:25:55.192Z,-2.94
2022-12-12T08:28:21.807Z,-2.94
2022-12-12T08:30:50.210Z,-2.93
2022-12-12T08:33:17.043Z,-2.90
2022-12-12T08:35:43.647Z,-2.90
2022-12-12T08:38:10.235Z,-2.87
2022-12-12T08:40:36.838Z,-2.84
2022-12-12T08:43:03.465Z,-2.84
2022-12-12T08:45:30.081Z,-2.82
2022-12-12T08:47:56.700Z,-2.82
2022-12-12T08:50:23.325Z,-2.80
2022-12-12T08:52:49.942Z,-2.78
2022-12-12T08:55:16.643Z,-2.77
2022-12-12T08:57:43.599Z,-2.75
2022-12-12T09:00:10.948Z,-2.73
2022-12-12T09:02:37.740Z,-2.72
2022-12-12T09:05:04.902Z,-2.71
2022-12-12T09:07:31.542Z,-2.69
2022-12-12T09:09:58.192Z,-2.66
2022-12-12T09:12:24.885Z,-2.65
2022-12-12T09:14:51.534Z,-2.66
2022-12-12T09:17:18.130Z,-2.64
2022-12-12T09:19:45.823Z,-2.62
2022-12-12T09:22:12.726Z,-2.62
2022-12-12T09:24:39.477Z,-2.62
2022-12-12T09:27:06.102Z,-2.60
2022-12-12T09:29:32.746Z,-2.58
2022-12-12T09:31:59.504Z,-2.58
2022-12-12T09:34:26.168Z,-2.61
2022-12-12T09:36:52.797Z,-2.61
2022-12-12T09:39:19.742Z,-2.60
2022-12-12T09:41:46.382Z,-2.59
2022-12-12T09:44:19.607Z,-2.60
2022-12-12T09:46:47.961Z,-2.58
2022-12-12T09:49:43.024Z,-2.58
2022-12-12T09:52:17.769Z,-2.56
2022-12-12T09:54:45.284Z,-2.55
2022-12-12T09:57:11.864Z,-2.54
2022-12-12T09:59:42.287Z,-2.53
2022-12-12T10:02:24.135Z,-2.53
2022-12-12T10:05:19.668Z,-2.52
2022-12-12T10:08:12.284Z,-2.54
2022-12-12T10:10:45.074Z,-2.54
2022-12-12T10:13:17.974Z,-2.54
2022-12-12T10:15:51.339Z,-2.52
2022-12-12T10:18:31.638Z,-2.51
2022-12-12T10:21:04.735Z,-2.53
2022-12-12T10:23:51.002Z,-2.50
2022-12-12T10:26:22.247Z,-2.50
2022-12-12T10:28:53.318Z,-2.48
2022-12-12T10:31:34.915Z,-2.47
2022-12-12T10:34:18.007Z,-2.45
2022-12-12T10:37:21.774Z,-2.43
2022-12-12T10:40:00.462Z,-2.42
2022-12-12T10:42:30.096Z,-2.39
2022-12-12T10:45:02.545Z,-2.39
2022-12-12T10:47:29.206Z,-2.39
2022-12-12T10:50:23.190Z,-2.39
2022-12-12T10:52:50.106Z,-2.37
2022-12-12T10:55:23.902Z,-2.37
2022-12-12T10:58:04.331Z,-2.36
2022-12-12T11:00:39.529Z,-2.36
2022-12-12T11:03:29.790Z,-2.38
2022-12-12T11:05:57.205Z,-2.39
2022-12-12T11:08:34.370Z,-2.35
2022-12-12T11:11:27.116Z,-2.33
2022-12-12T11:13:53.706Z,-2.32
2022-12-12T11:16:25.146Z,-2.33
2022-12-12T11:19:00.770Z,-2.33
2022-12-12T11:21:28.759Z,-2.32
2022-12-12T11:23:58.027Z,-2.34
2022-12-12T11:26:28.552Z,-2.34
2022-12-12T11:29:02.106Z,-2.33
2022-12-12T11:31:35.272Z,-2.35
2022-12-12T11:34:06.386Z,-2.35
2022-12-12T11:36:37.681Z,-2.35
2022-12-12T11:39:40.781Z,-2.33
2022-12-12T11:42:13.555Z,-2.32
2022-12-12T11:44:41.682Z,-2.32
2022-12-12T11:47:26.857Z,-2.30
2022-12-12T11:50:03.747Z,-2.31
2022-12-12T11:52:33.858Z,-2.33
2022-12-12T11:55:00.969Z,-2.33
2022-12-12T11:57:33.453Z,-2.32
2022-12-12T12:00:11.530Z,-2.32
2022-12-12T12:03:06.042Z,-2.30
2022-12-12T12:06:00.187Z,-2.28
2022-12-12T12:08:32.900Z,-2.31
2022-12-12T12:11:16.230Z,-2.32
2022-12-12T12:14:01.461Z,-2.31
2022-12-12T12:16:40.582Z,-2.30
2022-12-12T12:19:19.266Z,-2.31
2022-12-12T12:22:23.343Z,-2.32
2022-12-12T12:25:04.742Z,-2.31
2022-12-12T12:28:02.034Z,-2.31
2022-12-12T12:30:39.560Z,-2.33
2022-12-12T12:33:37.047Z,-2.33
2022-12-12T12:36:20.867Z,-2.35
2022-12-12T12:39:17.870Z,-2.34
2022-12-12T12:42:01.077Z,-2.32
2022-12-12T12:44:42.991Z,-2.30
2022-12-12T12:47:29.738Z,-2.32
2022-12-12T12:50:14.602Z,-2.33
2022-12-12T12:53:06.268Z,-2.32
2022-12-12T12:55:40.004Z,-2.31
2022-12-12T12:58:15.224Z,-2.33
2022-12-12T13:00:42.337Z,-2.34
2022-12-12T13:03:23.257Z,-2.36
2022-12-12T13:05:59.843Z,-2.39
2022-12-12T13:08:40.027Z,-2.41
2022-12-12T13:11:23.361Z,-2.44
2022-12-12T13:13:52.082Z,-2.45
2022-12-12T13:16:22.917Z,-2.44
2022-12-12T13:19:01.706Z,-2.45
2022-12-12T13:21:54.731Z,-2.46
2022-12-12T13:25:06.151Z,-2.47
2022-12-12T13:27:45.832Z,-2.50
2022-12-12T13:30:24.039Z,-2.51
2022-12-12T13:32:59.863Z,-2.53
2022-12-12T13:35:35.458Z,-2.54
2022-12-12T13:38:03.736Z,-2.56
2022-12-12T13:40:42.185Z,-2.58
2022-12-12T13:43:28.994Z,-2.60
2022-12-12T13:45:55.749Z,-2.62
2022-12-12T13:48:42.916Z,-2.63
2022-12-12T13:51:27.853Z,-2.65
2022-12-12T13:54:12.130Z,-2.65
2022-12-12T13:56:45.353Z,-2.68
2022-12-12T13:59:27.002Z,-2.68
2022-12-12T14:02:20.779Z,-2.69
2022-12-12T14:05:05.053Z,-2.70
2022-12-12T14:07:32.355Z,-2.72
2022-12-12T14:10:02.223Z,-2.73
2022-12-12T14:12:33.582Z,-2.74
2022-12-12T14:15:07.082Z,-2.74
2022-12-12T14:17:42.270Z,-2.75
2022-12-12T14:20:30.615Z,-2.77
2022-12-12T14:23:00.017Z,-2.78
2022-12-12T14:25:34.933Z,-2.78
2022-12-12T14:28:16.933Z,-2.80
2022-12-12T14:30:52.436Z,-2.80
2022-12-12T14:33:40.748Z,-2.77
2022-12-12T14:36:49.749Z,-2.78
2022-12-12T14:39:34.080Z,-2.78
2022-12-12T14:42:05.776Z,-2.79
2022-12-12T14:44:36.528Z,-2.80
2022-12-12T14:47:09.174Z,-2.80
2022-12-12T14:49:36.544Z,-2.80
2022-12-12T14:52:03.366Z,-2.80
2022-12-12T14:54:31.088Z,-2.81
2022-12-12T14:57:01.626Z,-2.79
2022-12-12T14:59:32.295Z,-2.81
2022-12-12T15:02:40.075Z,-2.81
2022-12-12T15:05:08.032Z,-2.82
2022-12-12T15:07:38.926Z,-2.83
2022-12-12T15:10:27.535Z,-2.83
2022-12-12T15:12:54.231Z,-2.84
2022-12-12T15:15:25.123Z,-2.84
2022-12-12T15:17:52.619Z,-2.84
2022-12-12T15:20:22.899Z,-2.85
2022-12-12T15:22:58.668Z,-2.83
2022-12-12T15:25:29.091Z,-2.83
2022-12-12T15:27:56.816Z,-2.83
2022-12-12T15:30:36.942Z,-2.85
2022-12-12T15:33:06.302Z,-2.83
2022-12-12T15:35:33.672Z,-2.82
2022-12-12T15:38:02.562Z,-2.81
2022-12-12T15:40:37.514Z,-2.82
2022-12-12T15:43:07.123Z,-2.81
2022-12-12T15:45:40.082Z,-2.80
2022-12-12T15:48:08.054Z,-2.82
2022-12-12T15:50:34.597Z,-2.80
2022-12-12T15:53:08.164Z,-2.80
2022-12-12T15:55:35.536Z,-2.79
2022-12-12T15:58:02.325Z,-2.77
2022-12-12T16:00:36.118Z,-2.76
2022-12-12T16:03:20.314Z,-2.76
2022-12-12T16:05:59.316Z,-2.77
2022-12-12T16:08:35.465Z,-2.77
2022-12-12T16:11:31.865Z,-2.75
2022-12-12T16:13:59.707Z,-2.76
2022-12-12T16:16:41.032Z,-2.74
2022-12-12T16:19:50.331Z,-2.71
2022-12-12T16:22:30.798Z,-2.72
2022-12-12T16:25:18.518Z,-2.73
2022-12-12T16:27:47.111Z,-2.72
2022-12-12T16:30:15.634Z,-2.72
2022-12-12T16:32:43.548Z,-2.71
2022-12-12T16:35:15.842Z,-2.70
2022-12-12T16:37:42.546Z,-2.69
2022-12-12T16:40:14.477Z,-2.70
2022-12-12T16:42:43.572Z,-2.69
2022-12-12T16:45:12.174Z,-2.69
2022-12-12T16:47:38.803Z,-2.67
2022-12-12T16:50:05.737Z,-2.65
2022-12-12T16:52:32.397Z,-2.64
2022-12-12T16:54:59.011Z,-2.65
2022-12-12T16:57:25.642Z,-2.64
2022-12-12T16:59:52.270Z,-2.63
2022-12-12T17:02:22.046Z,-2.62
2022-12-12T17:04:50.905Z,-2.63
2022-12-12T17:07:17.818Z,-2.62
2022-12-12T17:09:44.509Z,-2.62
2022-12-12T17:12:13.156Z,-2.61
2022-12-12T17:14:40.093Z,-2.59
2022-12-12T17:17:07.019Z,-2.60
2022-12-12T17:19:33.979Z,-2.58
2022-12-12T17:22:01.080Z,-2.56
2022-12-12T17:24:28.262Z,-2.56
2022-12-12T17:26:55.086Z,-2.56
2022-12-12T17:29:22.490Z,-2.56
2022-12-12T17:31:49.193Z,-2.55
2022-12-12T17:34:16.359Z,-2.54
2022-12-12T17:36:43.021Z,-2.54
2022-12-12T17:39:11.011Z,-2.54
2022-12-12T17:41:37.700Z,-2.53
2022-12-12T17:44:04.479Z,-2.50
2022-12-12T17:46:31.087Z,-2.50
2022-12-12T17:48:58.985Z,-2.50
2022-12-12T17:51:25.832Z,-2.50
2022-12-12T17:53:52.977Z,-2.51
2022-12-12T17:56:24.125Z,-2.49
2022-12-12T17:58:51.141Z,-2.48
2022-12-12T18:01:27.150Z,-2.47
2022-12-12T18:03:54.802Z,-2.48
2022-12-12T18:06:23.223Z,-2.46
2022-12-12T18:08:50.228Z,-2.46
2022-12-12T18:11:24.562Z,-2.45
2022-12-12T18:13:53.107Z,-2.44
2022-12-12T18:16:20.487Z,-2.44
2022-12-12T18:18:47.791Z,-2.42
2022-12-12T18:21:43.380Z,-2.43
2022-12-12T18:24:06.643Z,-2.42
2022-12-12T18:26:33.555Z,-2.41
2022-12-12T18:29:03.715Z,-2.43
2022-12-12T18:31:31.138Z,-2.42
2022-12-12T18:33:58.473Z,-2.41
2022-12-12T18:36:27.961Z,-2.41
2022-12-12T18:38:59.687Z,-2.41
2022-12-12T18:41:28.331Z,-2.39
2022-12-12T18:43:55.603Z,-2.40
2022-12-12T18:46:27.853Z,-2.38
2022-12-12T18:48:54.513Z,-2.40
2022-12-12T18:51:23.881Z,-2.37
2022-12-12T18:53:53.185Z,-2.36
2022-12-12T18:56:25.585Z,-2.38
2022-12-12T18:58:53.727Z,-2.38
2022-12-12T19:01:23.407Z,-2.38
2022-12-12T19:03:52.944Z,-2.39
2022-12-12T19:06:26.110Z,-2.39
2022-12-12T19:08:53.919Z,-2.39
2022-12-12T19:11:20.635Z,-2.40
2022-12-12T19:13:47.690Z,-2.39
2022-12-12T19:16:16.939Z,-2.40
2022-12-12T19:18:44.538Z,-2.39
2022-12-12T19:21:15.036Z,-2.39
2022-12-12T19:23:42.307Z,-2.39
2022-12-12T19:26:25.273Z,-2.39
2022-12-12T19:28:55.781Z,-2.40
2022-12-12T19:31:22.837Z,-2.42
2022-12-12T19:33:49.497Z,-2.43
2022-12-12T19:36:18.903Z,-2.42
2022-12-12T19:38:46.113Z,-2.44
2022-12-12T19:41:14.566Z,-2.45
2022-12-12T19:43:42.880Z,-2.45
2022-12-12T19:46:12.373Z,-2.46
2022-12-12T19:48:39.620Z,-2.49
2022-12-12T19:51:09.787Z,-2.50
2022-12-12T19:53:41.135Z,-2.52
2022-12-12T19:56:08.519Z,-2.54
2022-12-12T19:58:38.701Z,-2.55
2022-12-12T20:01:08.073Z,-2.56
2022-12-12T20:03:35.246Z,-2.58
2022-12-12T20:06:07.838Z,-2.60
2022-12-12T20:08:35.778Z,-2.64
2022-12-12T20:11:07.490Z,-2.64
2022-12-12T20:13:34.699Z,-2.64
2022-12-12T20:16:12.195Z,-2.66
2022-12-12T20:18:39.742Z,-2.68
2022-12-12T20:21:06.526Z,-2.71
2022-12-12T20:23:35.876Z,-2.72
2022-12-12T20:26:04.070Z,-2.73
2022-12-12T20:28:30.851Z,-2.75
2022-12-12T20:31:24.743Z,-2.75
2022-12-12T20:33:55.062Z,-2.76
2022-12-12T20:36:27.120Z,-2.78
2022-12-12T20:38:56.662Z,-2.77
2022-12-12T20:41:25.954Z,-2.79
2022-12-12T20:43:57.711Z,-2.78
2022-12-12T20:46:32.773Z,-2.80
2022-12-12T20:49:01.294Z,-2.82
2022-12-12T20:51:54.915Z,-2.83
2022-12-12T20:54:21.567Z,-2.87
2022-12-12T20:56:51.532Z,-2.89
2022-12-12T20:59:18.198Z,-2.87
2022-12-12T21:01:44.978Z,-2.88
2022-12-12T21:04:11.817Z,-2.86
2022-12-12T21:06:41.091Z,-2.86
2022-12-12T21:09:10.454Z,-2.84
2022-12-12T21:11:38.797Z,-2.85
2022-12-12T21:14:06.838Z,-2.86
2022-12-12T21:16:36.350Z,-2.88
2022-12-12T21:19:12.371Z,-2.88
2022-12-12T21:21:40.824Z,-2.88
2022-12-12T21:24:08.197Z,-2.89
2022-12-12T21:26:35.106Z,-2.91
2022-12-12T21:29:03.082Z,-2.91
2022-12-12T21:31:32.497Z,-2.94
2022-12-12T21:34:00.256Z,-2.95
2022-12-12T21:36:28.212Z,-2.93
2022-12-12T21:38:56.850Z,-2.93
2022-12-12T21:41:23.988Z,-2.93
2022-12-12T21:43:50.978Z,-2.92
2022-12-12T21:46:20.288Z,-2.93
2022-12-12T21:48:47.803Z,-2.91
2022-12-12T21:51:16.429Z,-2.92
2022-12-12T21:53:43.444Z,-2.93
2022-12-12T21:56:18.337Z,-2.93
2022-12-12T21:58:46.542Z,-2.95
2022-12-12T22:01:16.774Z,-2.95
2022-12-12T22:03:44.652Z,-2.95
2022-12-12T22:06:25.854Z,-2.96
2022-12-12T22:08:55.538Z,-2.96
2022-12-12T22:11:40.275Z,-2.99
2022-12-12T22:14:10.444Z,-2.98
2022-12-12T22:16:38.002Z,-2.99
2022-12-12T22:19:13.376Z,-3.00
2022-12-12T22:21:40.358Z,-3.02
2022-12-12T22:24:07.359Z,-3.02
2022-12-12T22:26:39.140Z,-3.01
2022-12-12T22:29:09.796Z,-2.99
2022-12-12T22:31:38.291Z,-2.98
2022-12-12T22:34:15.615Z,-3.01
2022-12-12T22:36:43.151Z,-2.99
2022-12-12T22:39:17.911Z,-2.98
2022-12-12T22:41:45.314Z,-3.00
2022-12-12T22:44:17.173Z,-2.99
2022-12-12T22:46:46.228Z,-2.99
2022-12-12T22:49:15.282Z,-3.00
2022-12-12T22:51:42.010Z,-2.99
2022-12-12T22:54:08.679Z,-3.00
2022-12-12T22:56:36.950Z,-3.00
2022-12-12T22:59:05.324Z,-2.99
2022-12-12T23:01:31.978Z,-2.99
2022-12-12T23:03:59.147Z,-3.00
2022-12-12T23:06:34.089Z,-3.00
2022-12-12T23:09:04.711Z,-2.99
2022-12-12T23:11:32.393Z,-2.98
2022-12-12T23:14:04.533Z,-2.97
2022-12-12T23:16:31.321Z,-2.98
2022-12-12T23:18:59.136Z,-2.99
2022-12-12T23:21:26.686Z,-2.99
2022-12-12T23:23:55.380Z,-2.96
2022-12-12T23:26:25.075Z,-2.97
2022-12-12T23:28:52.128Z,-2.99
2022-12-12T23:31:31.798Z,-2.99
2022-12-12T23:34:01.191Z,-2.98
2022-12-12T23:36:29.015Z,-2.99
2022-12-12T23:38:57.475Z,-3.00
2022-12-12T23:41:25.153Z,-3.05
2022-12-12T23:43:52.706Z,-3.06
2022-12-12T23:46:28.927Z,-3.07
2022-12-12T23:49:11.647Z,-3.07
2022-12-12T23:51:59.389Z,-3.08
2022-12-12T23:54:32.181Z,-3.08
2022-12-12T23:56:59.797Z,-3.11
2022-12-12T23:59:27.396Z,-3.12
